createdAt,value
2018-04-23T00:00:12.193Z,56.52
2018-04-23T00:01:14.705Z,56.51
2018-04-23T00:02:17.193Z,56.48
2018-04-23T00:03:19.663Z,56.50
2018-04-23T00:04:22.153Z,56.49
2018-04-23T00:05:24.654Z,56.46
2018-04-23T00:06:27.162Z,56.45
2018-04-23T00:07:29.640Z,56.45
2018-04-23T00:08:32.195Z,56.45
2018-04-23T00:09:34.681Z,56.45
2018-04-23T00:10:37.176Z,56.45
2018-04-23T00:11:39.688Z,56.46
2018-04-23T00:12:42.163Z,56.53
2018-04-23T00:13:44.745Z,56.56
2018-04-23T00:14:47.217Z,56.57
2018-04-23T00:15:49.707Z,56.57
2018-04-23T00:16:52.231Z,56.57
2018-04-23T00:17:54.717Z,56.62
2018-04-23T00:18:57.223Z,56.65
2018-04-23T00:19:59.728Z,56.66
2018-04-23T00:21:02.220Z,56.77
2018-04-23T00:22:04.729Z,56.78
2018-04-23T00:23:07.228Z,56.84
2018-04-23T00:24:09.756Z,56.87
2018-04-23T00:25:12.242Z,57.10
2018-04-23T00:26:14.747Z,57.23
2018-04-23T00:27:17.276Z,57.27
2018-04-23T00:28:19.770Z,57.30
2018-04-23T00:29:22.271Z,57.44
2018-04-23T00:30:24.765Z,57.57
2018-04-23T00:31:27.266Z,57.56
2018-04-23T00:32:29.765Z,57.54
2018-04-23T00:33:32.253Z,57.56
2018-04-23T00:34:34.799Z,57.59
2018-04-23T00:35:37.303Z,57.66
2018-04-23T00:36:39.797Z,57.67
2018-04-23T00:37:42.289Z,57.79
2018-04-23T00:38:44.790Z,57.84
2018-04-23T00:39:47.279Z,57.92
2018-04-23T00:40:49.779Z,57.92
2018-04-23T00:41:52.251Z,57.98
2018-04-23T00:42:54.752Z,57.90
2018-04-23T00:43:57.259Z,58.01
2018-04-23T00:44:59.731Z,58.19
2018-04-23T00:46:02.269Z,58.11
2018-04-23T00:47:04.776Z,58.17
2018-04-23T00:48:07.330Z,58.27
2018-04-23T00:49:09.824Z,58.29
2018-04-23T00:50:12.328Z,58.33
2018-04-23T00:51:14.824Z,58.31
2018-04-23T00:52:17.329Z,58.35
2018-04-23T00:53:31.636Z,58.43
2018-04-23T00:54:34.133Z,58.47
2018-04-23T00:55:36.598Z,58.56
2018-04-23T00:56:39.105Z,58.55
2018-04-23T00:57:41.667Z,58.60
2018-04-23T00:58:44.230Z,58.70
2018-04-23T00:59:46.731Z,58.72
2018-04-23T01:00:49.246Z,58.70
2018-04-23T01:01:51.747Z,58.71
2018-04-23T01:02:54.249Z,58.71
2018-04-23T01:03:56.733Z,58.71
2018-04-23T01:04:59.254Z,58.82
2018-04-23T01:06:01.749Z,58.87
2018-04-23T01:07:04.251Z,58.87
2018-04-23T01:08:06.742Z,58.85
2018-04-23T01:09:09.317Z,58.84
2018-04-23T01:10:11.803Z,58.82
2018-04-23T01:11:14.286Z,58.80
2018-04-23T01:12:16.777Z,58.80
2018-04-23T01:13:19.353Z,58.77
2018-04-23T01:14:21.855Z,58.76
2018-04-23T01:15:24.370Z,58.75
2018-04-23T01:16:26.929Z,58.77
2018-04-23T01:17:29.491Z,58.75
2018-04-23T01:18:31.998Z,58.72
2018-04-23T01:19:34.512Z,58.72
2018-04-23T01:20:36.987Z,58.70
2018-04-23T01:21:39.514Z,58.74
2018-04-23T01:22:42.080Z,58.72
2018-04-23T01:23:44.575Z,58.76
2018-04-23T01:24:47.106Z,58.75
2018-04-23T01:25:49.669Z,58.80
2018-04-23T01:26:52.203Z,58.82
2018-04-23T01:27:54.686Z,58.78
2018-04-23T01:28:57.192Z,58.78
2018-04-23T01:29:59.700Z,58.76
2018-04-23T01:31:02.197Z,58.75
2018-04-23T01:32:04.716Z,58.73
2018-04-23T01:33:07.275Z,58.67
2018-04-23T01:34:09.789Z,58.66
2018-04-23T01:35:12.280Z,58.66
2018-04-23T01:36:14.776Z,58.65
2018-04-23T01:37:17.311Z,58.64
2018-04-23T01:38:19.828Z,58.66
2018-04-23T01:39:22.350Z,58.71
2018-04-23T01:40:24.889Z,58.70
2018-04-23T01:41:27.453Z,58.66
2018-04-23T01:42:29.951Z,58.65
2018-04-23T01:43:32.470Z,58.64
2018-04-23T01:44:34.963Z,58.76
2018-04-23T01:45:37.450Z,58.78
2018-04-23T01:46:40.046Z,58.85
2018-04-23T01:47:42.536Z,58.86
2018-04-23T01:48:45.041Z,58.85
2018-04-23T01:49:47.548Z,58.83
2018-04-23T01:50:50.034Z,58.82
2018-04-23T01:51:52.539Z,58.83
2018-04-23T01:52:55.099Z,58.86
2018-04-23T01:53:57.586Z,58.86
2018-04-23T01:55:00.116Z,58.87
2018-04-23T01:56:02.605Z,58.86
2018-04-23T01:57:05.086Z,58.90
2018-04-23T01:58:07.580Z,58.86
2018-04-23T01:59:10.078Z,58.84
2018-04-23T02:00:12.610Z,58.84
2018-04-23T02:01:15.121Z,58.84
2018-04-23T02:02:17.624Z,58.85
2018-04-23T02:03:20.120Z,58.84
2018-04-23T02:04:22.646Z,58.85
2018-04-23T02:05:25.163Z,58.83
2018-04-23T02:06:27.677Z,58.83
2018-04-23T02:07:30.182Z,58.86
2018-04-23T02:08:32.687Z,58.80
2018-04-23T02:09:35.172Z,58.76
2018-04-23T02:10:37.687Z,58.75
2018-04-23T02:11:40.172Z,58.70
2018-04-23T02:12:42.664Z,58.65
2018-04-23T02:13:45.172Z,58.63
2018-04-23T02:14:47.675Z,58.66
2018-04-23T02:15:50.190Z,58.66
2018-04-23T02:16:52.677Z,58.64
2018-04-23T02:17:55.166Z,58.68
2018-04-23T02:18:57.828Z,58.66
2018-04-23T02:20:00.335Z,58.66
2018-04-23T02:21:02.856Z,58.65
2018-04-23T02:22:05.376Z,58.66
2018-04-23T02:23:07.971Z,58.76
2018-04-23T02:24:10.486Z,58.84
2018-04-23T02:25:12.959Z,58.89
2018-04-23T02:26:15.469Z,58.88
2018-04-23T02:27:17.958Z,58.91
2018-04-23T02:28:20.468Z,58.90
2018-04-23T02:29:22.965Z,58.87
2018-04-23T02:30:25.448Z,58.85
2018-04-23T02:31:27.938Z,58.83
2018-04-23T02:32:30.428Z,58.82
2018-04-23T02:33:32.908Z,58.83
2018-04-23T02:34:35.397Z,58.84
2018-04-23T02:35:37.894Z,58.85
2018-04-23T02:36:40.419Z,58.86
2018-04-23T02:37:42.917Z,58.89
2018-04-23T02:38:45.401Z,58.85
2018-04-23T02:39:47.904Z,58.83
2018-04-23T02:40:50.390Z,58.81
2018-04-23T02:41:52.939Z,58.84
2018-04-23T02:42:55.534Z,58.84
2018-04-23T02:43:58.032Z,58.84
2018-04-23T02:45:00.517Z,58.83
2018-04-23T02:46:03.021Z,58.82
2018-04-23T02:47:05.536Z,58.80
2018-04-23T02:48:08.032Z,58.81
2018-04-23T02:49:10.589Z,58.82
2018-04-23T02:50:13.079Z,58.82
2018-04-23T02:51:15.575Z,58.84
2018-04-23T02:52:18.067Z,58.85
2018-04-23T02:53:20.556Z,58.82
2018-04-23T02:54:23.045Z,58.77
2018-04-23T02:55:25.552Z,58.85
2018-04-23T02:56:28.068Z,58.84
2018-04-23T02:57:30.559Z,58.82
2018-04-23T02:58:33.063Z,58.78
2018-04-23T02:59:35.557Z,58.74
2018-04-23T03:00:38.050Z,58.78
2018-04-23T03:01:40.553Z,58.76
2018-04-23T03:02:43.129Z,58.76
2018-04-23T03:03:45.588Z,58.79
2018-04-23T03:04:48.091Z,58.76
2018-04-23T03:05:50.595Z,58.81
2018-04-23T03:06:53.187Z,58.81
2018-04-23T03:07:55.681Z,58.78
2018-04-23T03:08:58.201Z,58.77
2018-04-23T03:10:00.678Z,58.78
2018-04-23T03:11:03.226Z,58.77
2018-04-23T03:12:05.780Z,58.78
2018-04-23T03:13:08.334Z,58.75
2018-04-23T03:14:10.817Z,58.75
2018-04-23T03:15:13.356Z,58.73
2018-04-23T03:16:15.919Z,58.76
2018-04-23T03:17:18.429Z,58.79
2018-04-23T03:18:20.930Z,58.78
2018-04-23T03:19:23.417Z,58.82
2018-04-23T03:20:25.951Z,58.83
2018-04-23T03:21:28.454Z,58.82
2018-04-23T03:22:30.969Z,58.86
2018-04-23T03:23:33.467Z,58.88
2018-04-23T03:24:35.942Z,58.95
2018-04-23T03:25:38.430Z,58.94
2018-04-23T03:26:40.921Z,58.96
2018-04-23T03:27:43.436Z,58.95
2018-04-23T03:28:46.019Z,58.95
2018-04-23T03:29:48.509Z,58.98
2018-04-23T03:30:51.040Z,58.99
2018-04-23T03:31:53.546Z,59.04
2018-04-23T03:32:56.158Z,59.03
2018-04-23T03:33:58.644Z,59.03
2018-04-23T03:35:01.147Z,59.05
2018-04-23T03:36:03.702Z,59.06
2018-04-23T03:37:06.209Z,59.06
2018-04-23T03:38:08.759Z,59.03
2018-04-23T03:39:11.248Z,59.04
2018-04-23T03:40:13.751Z,59.05
2018-04-23T03:41:16.227Z,59.03
2018-04-23T03:42:18.732Z,59.06
2018-04-23T03:43:21.237Z,59.10
2018-04-23T03:44:23.759Z,59.09
2018-04-23T03:45:26.259Z,59.08
2018-04-23T03:46:28.746Z,59.08
2018-04-23T03:47:31.218Z,59.12
2018-04-23T03:48:33.729Z,59.11
2018-04-23T03:49:36.213Z,59.07
2018-04-23T03:50:38.698Z,59.08
2018-04-23T03:51:41.184Z,59.08
2018-04-23T03:52:43.674Z,59.05
2018-04-23T03:53:46.234Z,59.00
2018-04-23T03:54:48.720Z,58.97
2018-04-23T03:55:51.205Z,58.97
2018-04-23T03:56:53.796Z,58.98
2018-04-23T03:57:56.306Z,58.99
2018-04-23T03:58:58.791Z,59.16
2018-04-23T04:00:01.263Z,59.25
2018-04-23T04:01:03.766Z,59.29
2018-04-23T04:02:06.262Z,59.32
2018-04-23T04:03:08.744Z,59.34
2018-04-23T04:04:11.271Z,59.32
2018-04-23T04:05:13.781Z,59.34
2018-04-23T04:06:16.288Z,59.30
2018-04-23T04:07:18.781Z,59.29
2018-04-23T04:08:21.272Z,59.29
2018-04-23T04:09:23.825Z,59.30
2018-04-23T04:10:26.289Z,59.30
2018-04-23T04:11:28.790Z,59.31
2018-04-23T04:12:43.114Z,59.34
2018-04-23T04:13:57.301Z,59.33
2018-04-23T04:15:11.503Z,59.29
2018-04-23T04:16:25.785Z,59.27
2018-04-23T04:19:06.042Z,59.29
2018-04-23T04:20:08.529Z,59.29
2018-04-23T04:21:11.039Z,59.29
2018-04-23T04:22:13.533Z,59.33
2018-04-23T04:23:16.043Z,59.33
2018-04-23T04:24:18.555Z,59.32
2018-04-23T04:25:21.047Z,59.31
2018-04-23T04:26:23.537Z,59.28
2018-04-23T04:27:26.037Z,59.27
2018-04-23T04:28:28.542Z,59.28
2018-04-23T04:29:31.047Z,59.28
2018-04-23T04:30:33.543Z,59.26
2018-04-23T04:31:36.115Z,59.25
2018-04-23T04:32:38.606Z,59.22
2018-04-23T04:33:41.093Z,59.22
2018-04-23T04:34:43.601Z,59.21
2018-04-23T04:35:46.113Z,59.21
2018-04-23T04:36:48.596Z,59.23
2018-04-23T04:37:51.167Z,59.24
2018-04-23T04:38:53.661Z,59.28
2018-04-23T04:39:56.185Z,59.24
2018-04-23T04:40:58.712Z,59.26
2018-04-23T04:42:01.229Z,59.28
2018-04-23T04:43:03.722Z,59.26
2018-04-23T04:44:06.208Z,59.26
2018-04-23T04:45:08.691Z,59.27
2018-04-23T04:46:11.197Z,59.25
2018-04-23T04:47:13.797Z,59.22
2018-04-23T04:48:16.285Z,59.18
2018-04-23T04:49:18.792Z,59.20
2018-04-23T04:50:21.374Z,59.23
2018-04-23T04:51:23.882Z,59.24
2018-04-23T04:52:26.380Z,59.22
2018-04-23T04:53:28.866Z,59.21
2018-04-23T04:54:31.343Z,59.20
2018-04-23T04:55:33.841Z,59.17
2018-04-23T04:56:36.345Z,59.16
2018-04-23T04:57:38.837Z,59.28
2018-04-23T04:58:41.342Z,59.27
2018-04-23T04:59:43.831Z,59.18
2018-04-23T05:00:46.361Z,59.17
2018-04-23T05:01:48.847Z,59.17
2018-04-23T05:02:51.382Z,59.21
2018-04-23T05:03:54.435Z,59.19
2018-04-23T05:04:56.922Z,59.18
2018-04-23T05:05:59.396Z,59.15
2018-04-23T05:07:01.929Z,59.15
2018-04-23T05:08:04.490Z,59.15
2018-04-23T05:09:06.985Z,59.17
2018-04-23T05:10:09.511Z,59.13
2018-04-23T05:11:12.070Z,59.08
2018-04-23T05:12:14.554Z,59.07
2018-04-23T05:13:17.038Z,59.11
2018-04-23T05:14:19.539Z,59.11
2018-04-23T05:15:22.047Z,59.11
2018-04-23T05:16:24.542Z,59.09
2018-04-23T05:17:27.121Z,59.09
2018-04-23T05:18:29.680Z,59.14
2018-04-23T05:19:32.192Z,59.14
2018-04-23T05:20:34.696Z,59.16
2018-04-23T05:21:37.233Z,59.14
2018-04-23T05:22:39.742Z,59.12
2018-04-23T05:23:42.336Z,59.07
2018-04-23T05:24:44.800Z,59.05
2018-04-23T05:25:47.373Z,59.04
2018-04-23T05:26:49.843Z,59.07
2018-04-23T05:27:52.352Z,59.00
2018-04-23T05:28:54.856Z,58.95
2018-04-23T05:29:57.465Z,58.87
2018-04-23T05:30:59.990Z,58.83
2018-04-23T05:32:02.464Z,58.87
2018-04-23T05:33:04.950Z,58.94
2018-04-23T05:34:07.442Z,58.95
2018-04-23T05:35:09.932Z,58.96
2018-04-23T05:36:12.435Z,58.95
2018-04-23T05:37:14.927Z,59.01
2018-04-23T05:38:17.444Z,59.01
2018-04-23T05:39:19.940Z,59.03
2018-04-23T05:40:22.519Z,59.02
2018-04-23T05:41:25.089Z,59.06
2018-04-23T05:42:27.950Z,59.08
2018-04-23T05:43:30.436Z,59.06
2018-04-23T05:44:32.924Z,59.05
2018-04-23T05:45:35.451Z,59.02
2018-04-23T05:46:37.945Z,59.00
2018-04-23T05:47:40.450Z,58.97
2018-04-23T05:48:42.977Z,58.94
2018-04-23T05:49:45.465Z,58.92
2018-04-23T05:50:47.954Z,58.87
2018-04-23T05:51:50.473Z,58.88
2018-04-23T05:52:53.025Z,58.86
2018-04-23T05:53:55.533Z,58.90
2018-04-23T05:54:58.058Z,58.93
2018-04-23T05:56:00.616Z,58.91
2018-04-23T05:57:03.113Z,58.93
2018-04-23T05:58:05.615Z,58.87
2018-04-23T05:59:08.140Z,58.84
2018-04-23T06:00:10.723Z,58.81
2018-04-23T06:01:13.213Z,58.81
2018-04-23T06:02:15.705Z,58.77
2018-04-23T06:03:18.212Z,58.70
2018-04-23T06:04:20.715Z,58.65
2018-04-23T06:05:23.205Z,58.67
2018-04-23T06:06:25.678Z,58.69
2018-04-23T06:07:28.189Z,58.67
2018-04-23T06:08:30.692Z,58.64
2018-04-23T06:09:33.216Z,58.66
2018-04-23T06:10:35.739Z,58.58
2018-04-23T06:11:38.245Z,58.54
2018-04-23T06:12:40.751Z,58.59
2018-04-23T06:13:43.307Z,58.63
2018-04-23T06:14:45.796Z,58.71
2018-04-23T06:15:48.285Z,58.69
2018-04-23T06:16:50.778Z,58.73
2018-04-23T06:17:53.284Z,58.74
2018-04-23T06:18:55.775Z,58.75
2018-04-23T06:19:58.253Z,58.65
2018-04-23T06:21:00.872Z,58.65
2018-04-23T06:22:03.365Z,58.96
2018-04-23T06:23:05.856Z,58.96
2018-04-23T06:24:08.383Z,58.90
2018-04-23T06:25:10.872Z,58.86
2018-04-23T06:26:13.416Z,58.82
2018-04-23T06:27:15.925Z,58.82
2018-04-23T06:28:18.427Z,58.86
2018-04-23T06:29:20.928Z,58.90
2018-04-23T06:30:23.407Z,58.92
2018-04-23T06:31:25.900Z,59.05
2018-04-23T06:32:28.407Z,59.13
2018-04-23T06:33:30.901Z,59.14
2018-04-23T06:34:33.451Z,59.15
2018-04-23T06:35:35.922Z,59.13
2018-04-23T06:36:38.414Z,59.04
2018-04-23T06:37:40.897Z,58.99
2018-04-23T06:38:43.404Z,58.97
2018-04-23T06:39:45.894Z,59.01
2018-04-23T06:40:48.377Z,58.99
2018-04-23T06:41:50.869Z,59.00
2018-04-23T06:42:53.416Z,59.03
2018-04-23T06:43:55.908Z,59.03
2018-04-23T06:44:58.436Z,59.02
2018-04-23T06:46:00.911Z,59.00
2018-04-23T06:47:03.415Z,58.98
2018-04-23T06:48:05.905Z,58.95
2018-04-23T06:49:08.399Z,58.93
2018-04-23T06:50:10.929Z,58.92
2018-04-23T06:51:13.417Z,58.86
2018-04-23T06:52:15.901Z,58.80
2018-04-23T06:53:18.389Z,58.78
2018-04-23T06:54:20.900Z,58.78
2018-04-23T06:55:23.438Z,58.73
2018-04-23T06:56:25.929Z,58.74
2018-04-23T06:57:28.426Z,58.75
2018-04-23T06:58:30.937Z,58.75
2018-04-23T06:59:33.429Z,58.72
2018-04-23T07:00:35.923Z,58.72
2018-04-23T07:01:38.417Z,58.72
2018-04-23T07:02:40.917Z,58.69
2018-04-23T07:03:43.423Z,58.76
2018-04-23T07:04:45.957Z,58.82
2018-04-23T07:05:48.558Z,58.85
2018-04-23T07:06:51.063Z,58.83
2018-04-23T07:07:53.558Z,58.82
2018-04-23T07:08:56.057Z,58.87
2018-04-23T07:09:58.564Z,58.86
2018-04-23T07:11:01.091Z,58.87
2018-04-23T07:12:03.595Z,58.84
2018-04-23T07:13:06.083Z,58.84
2018-04-23T07:14:08.577Z,58.84
2018-04-23T07:15:11.069Z,58.93
2018-04-23T07:16:13.575Z,59.09
2018-04-23T07:17:16.061Z,59.09
2018-04-23T07:18:18.548Z,58.99
2018-04-23T07:19:21.117Z,58.48
2018-04-23T07:20:23.610Z,58.00
2018-04-23T07:21:26.116Z,57.72
2018-04-23T07:22:28.605Z,57.54
2018-04-23T07:23:31.094Z,57.20
2018-04-23T07:24:33.619Z,56.25
2018-04-23T07:25:36.113Z,56.42
2018-04-23T07:26:38.664Z,56.27
2018-04-23T07:27:41.157Z,56.12
2018-04-23T07:28:43.650Z,56.09
2018-04-23T07:29:46.138Z,55.79
2018-04-23T07:30:48.648Z,54.50
2018-04-23T07:31:51.150Z,54.63
2018-04-23T07:32:53.657Z,54.71
2018-04-23T07:33:56.145Z,54.71
2018-04-23T07:34:58.623Z,54.30
2018-04-23T07:36:01.109Z,54.15
2018-04-23T07:37:03.655Z,54.06
2018-04-23T07:38:06.139Z,54.03
2018-04-23T07:39:08.614Z,53.73
2018-04-23T07:40:11.123Z,53.75
2018-04-23T07:41:13.600Z,53.64
2018-04-23T07:42:16.218Z,53.72
2018-04-23T07:43:18.698Z,53.60
2018-04-23T07:44:21.204Z,53.44
2018-04-23T07:45:23.701Z,53.46
2018-04-23T07:46:26.215Z,53.09
2018-04-23T07:47:28.719Z,53.20
2018-04-23T07:48:31.211Z,53.27
2018-04-23T07:49:33.713Z,53.20
2018-04-23T07:50:36.229Z,52.72
2018-04-23T07:51:38.724Z,52.26
2018-04-23T07:52:41.277Z,52.46
2018-04-23T07:53:43.768Z,52.68
2018-04-23T07:54:46.262Z,52.89
2018-04-23T07:55:48.758Z,53.13
2018-04-23T07:56:51.234Z,53.21
2018-04-23T07:57:53.782Z,53.23
2018-04-23T07:58:56.299Z,53.20
2018-04-23T07:59:58.812Z,53.35
2018-04-23T08:01:01.377Z,53.46
2018-04-23T08:02:03.888Z,53.52
2018-04-23T08:03:06.375Z,53.59
2018-04-23T08:04:08.871Z,53.67
2018-04-23T08:05:11.365Z,53.69
2018-04-23T08:06:13.850Z,53.61
2018-04-23T08:07:16.379Z,53.63
2018-04-23T08:08:18.868Z,53.64
2018-04-23T08:09:21.375Z,53.64
2018-04-23T08:10:23.895Z,53.70
2018-04-23T08:11:26.467Z,53.76
2018-04-23T08:12:29.024Z,53.78
2018-04-23T08:13:31.522Z,53.76
2018-04-23T08:14:34.102Z,53.79
2018-04-23T08:15:36.595Z,53.79
2018-04-23T08:16:39.095Z,53.82
2018-04-23T08:17:41.603Z,53.82
2018-04-23T08:18:44.121Z,53.82
2018-04-23T08:19:46.657Z,53.79
2018-04-23T08:20:49.130Z,53.85
2018-04-23T08:21:51.617Z,53.92
2018-04-23T08:22:54.134Z,53.94
2018-04-23T08:23:56.627Z,53.97
2018-04-23T08:24:59.125Z,53.98
2018-04-23T08:26:01.622Z,54.03
2018-04-23T08:27:04.118Z,54.06
2018-04-23T08:28:06.628Z,54.08
2018-04-23T08:29:09.126Z,54.09
2018-04-23T08:30:11.636Z,54.11
2018-04-23T08:31:14.144Z,54.13
2018-04-23T08:32:16.637Z,54.15
2018-04-23T08:33:19.168Z,54.16
2018-04-23T08:34:21.657Z,54.19
2018-04-23T08:35:24.165Z,54.22
2018-04-23T08:36:26.667Z,54.25
2018-04-23T08:37:29.185Z,54.27
2018-04-23T08:38:31.704Z,54.30
2018-04-23T08:39:34.205Z,54.30
2018-04-23T08:40:36.711Z,54.31
2018-04-23T08:41:39.191Z,54.33
2018-04-23T08:42:41.681Z,54.34
2018-04-23T08:43:44.225Z,54.36
2018-04-23T08:44:46.696Z,54.37
2018-04-23T08:45:49.246Z,54.38
2018-04-23T08:46:51.774Z,54.39
2018-04-23T08:47:54.293Z,54.40
2018-04-23T08:48:56.867Z,54.42
2018-04-23T08:49:59.332Z,54.44
2018-04-23T08:51:01.807Z,54.44
2018-04-23T08:52:04.345Z,54.44
2018-04-23T08:53:06.845Z,54.44
2018-04-23T08:54:09.335Z,54.44
2018-04-23T08:55:11.839Z,54.44
2018-04-23T08:56:14.323Z,54.45
2018-04-23T08:57:16.857Z,54.45
2018-04-23T08:58:19.359Z,54.41
2018-04-23T08:59:21.883Z,54.44
2018-04-23T09:00:24.359Z,54.41
2018-04-23T09:01:26.861Z,54.38
2018-04-23T09:02:29.390Z,54.37
2018-04-23T09:03:31.897Z,54.35
2018-04-23T09:04:34.395Z,54.34
2018-04-23T09:05:36.928Z,54.33
2018-04-23T09:06:39.486Z,54.31
2018-04-23T09:07:42.043Z,54.30
2018-04-23T09:08:44.608Z,54.28
2018-04-23T09:09:47.168Z,54.24
2018-04-23T09:10:49.647Z,54.20
2018-04-23T09:11:52.187Z,54.19
2018-04-23T09:12:54.677Z,54.17
2018-04-23T09:13:57.206Z,54.14
2018-04-23T09:14:59.725Z,54.13
2018-04-23T09:16:02.200Z,54.12
2018-04-23T09:17:04.708Z,54.11
2018-04-23T09:18:07.223Z,54.09
2018-04-23T09:19:09.746Z,54.06
2018-04-23T09:20:12.270Z,54.04
2018-04-23T09:21:14.761Z,54.01
2018-04-23T09:22:17.268Z,53.97
2018-04-23T09:23:19.756Z,53.94
2018-04-23T09:24:22.296Z,53.93
2018-04-23T09:25:24.851Z,53.93
2018-04-23T09:26:27.347Z,53.92
2018-04-23T09:27:29.875Z,53.91
2018-04-23T09:28:32.380Z,53.91
2018-04-23T09:29:34.886Z,53.93
2018-04-23T09:30:37.448Z,53.90
2018-04-23T09:31:40.044Z,53.88
2018-04-23T09:32:42.506Z,53.85
2018-04-23T09:33:44.990Z,53.85
2018-04-23T09:34:47.541Z,53.84
2018-04-23T09:35:50.142Z,53.85
2018-04-23T09:36:52.628Z,53.81
2018-04-23T09:37:55.151Z,53.79
2018-04-23T09:38:57.761Z,53.78
2018-04-23T09:40:00.219Z,53.77
2018-04-23T09:41:02.755Z,53.78
2018-04-23T09:42:05.248Z,53.76
2018-04-23T09:43:07.723Z,53.76
2018-04-23T09:44:10.231Z,53.77
2018-04-23T09:45:12.721Z,53.76
2018-04-23T09:46:15.242Z,53.76
2018-04-23T09:47:17.733Z,53.75
2018-04-23T09:48:20.223Z,53.74
2018-04-23T09:49:22.699Z,53.72
2018-04-23T09:50:25.175Z,53.69
2018-04-23T09:51:27.685Z,53.70
2018-04-23T09:52:30.173Z,53.69
2018-04-23T09:53:32.665Z,53.67
2018-04-23T09:54:35.155Z,53.67
2018-04-23T09:55:37.658Z,53.67
2018-04-23T09:56:40.169Z,53.67
2018-04-23T09:57:42.675Z,53.67
2018-04-23T09:58:45.177Z,53.68
2018-04-23T09:59:47.660Z,53.68
2018-04-23T10:00:50.152Z,53.69
2018-04-23T10:01:52.665Z,53.67
2018-04-23T10:02:55.172Z,53.66
2018-04-23T10:04:03.121Z,53.66
2018-04-23T10:05:05.715Z,53.67
2018-04-23T10:06:08.216Z,53.65
2018-04-23T10:07:10.733Z,53.64
2018-04-23T10:08:13.225Z,53.63
2018-04-23T10:09:15.738Z,53.63
2018-04-23T10:10:18.232Z,53.62
2018-04-23T10:11:20.698Z,53.60
2018-04-23T10:12:23.202Z,53.59
2018-04-23T10:13:25.697Z,53.59
2018-04-23T10:14:28.189Z,53.58
2018-04-23T10:15:30.811Z,53.57
2018-04-23T10:16:33.304Z,53.56
2018-04-23T10:17:35.819Z,53.57
2018-04-23T10:18:38.386Z,53.58
2018-04-23T10:19:40.946Z,53.58
2018-04-23T10:20:43.507Z,53.57
2018-04-23T10:21:45.986Z,53.56
2018-04-23T10:22:48.510Z,53.56
2018-04-23T10:23:51.000Z,53.56
2018-04-23T10:24:53.501Z,53.55
2018-04-23T10:25:55.994Z,53.55
2018-04-23T10:26:58.490Z,53.54
2018-04-23T10:28:00.982Z,53.54
2018-04-23T10:29:04.216Z,53.53
2018-04-23T10:30:06.706Z,53.54
2018-04-23T10:31:09.208Z,53.54
2018-04-23T10:32:11.698Z,53.53
2018-04-23T10:33:14.225Z,53.53
2018-04-23T10:34:16.740Z,53.53
2018-04-23T10:35:19.234Z,53.53
2018-04-23T10:36:21.808Z,53.51
2018-04-23T10:37:24.368Z,53.51
2018-04-23T10:38:26.926Z,53.47
2018-04-23T10:39:29.488Z,53.48
2018-04-23T10:40:32.048Z,53.48
2018-04-23T10:41:34.610Z,53.48
2018-04-23T10:42:37.142Z,53.45
2018-04-23T10:43:39.725Z,53.45
2018-04-23T10:44:42.228Z,53.47
2018-04-23T10:45:44.717Z,53.48
2018-04-23T10:46:47.200Z,53.48
2018-04-23T10:47:49.721Z,53.47
2018-04-23T10:48:52.309Z,53.45
2018-04-23T10:49:54.825Z,53.42
2018-04-23T10:50:57.331Z,53.42
2018-04-23T10:51:59.838Z,53.43
2018-04-23T10:53:02.315Z,53.43
2018-04-23T10:54:04.829Z,53.40
2018-04-23T10:55:07.302Z,53.39
2018-04-23T10:56:09.839Z,53.36
2018-04-23T10:57:12.319Z,53.34
2018-04-23T10:58:14.850Z,53.32
2018-04-23T10:59:17.414Z,53.29
2018-04-23T11:00:19.904Z,53.24
2018-04-23T11:01:22.382Z,53.19
2018-04-23T11:02:24.919Z,53.19
2018-04-23T11:03:27.489Z,53.20
2018-04-23T11:04:29.992Z,53.18
2018-04-23T11:05:32.501Z,53.16
2018-04-23T11:06:34.995Z,53.14
2018-04-23T11:07:37.590Z,53.13
2018-04-23T11:08:40.143Z,53.12
2018-04-23T11:09:42.738Z,53.11
2018-04-23T11:10:45.236Z,53.11
2018-04-23T11:11:47.719Z,53.09
2018-04-23T11:12:50.220Z,53.09
2018-04-23T11:13:52.730Z,53.08
2018-04-23T11:14:55.230Z,53.12
2018-04-23T11:15:57.760Z,53.06
2018-04-23T11:17:00.248Z,53.02
2018-04-23T11:18:02.783Z,53.01
2018-04-23T11:19:05.285Z,53.01
2018-04-23T11:20:07.813Z,53.02
2018-04-23T11:21:10.352Z,53.02
2018-04-23T11:22:12.915Z,53.01
2018-04-23T11:23:15.407Z,53.00
2018-04-23T11:24:17.930Z,53.02
2018-04-23T11:25:20.494Z,53.03
2018-04-23T11:26:23.052Z,53.01
2018-04-23T11:27:25.529Z,53.01
2018-04-23T11:28:28.038Z,52.99
2018-04-23T11:29:30.535Z,52.97
2018-04-23T11:30:33.075Z,52.96
2018-04-23T11:31:35.549Z,52.95
2018-04-23T11:32:38.027Z,52.96
2018-04-23T11:33:40.495Z,52.97
2018-04-23T11:34:44.032Z,52.97
2018-04-23T11:35:46.606Z,52.99
2018-04-23T11:36:49.167Z,53.00
2018-04-23T11:37:51.742Z,53.00
2018-04-23T11:38:54.218Z,53.00
2018-04-23T11:39:56.803Z,53.02
2018-04-23T11:40:59.346Z,53.00
2018-04-23T11:42:01.834Z,53.00
2018-04-23T11:43:04.309Z,52.99
2018-04-23T11:44:06.792Z,52.97
2018-04-23T11:45:09.362Z,52.97
2018-04-23T11:46:11.817Z,52.98
2018-04-23T11:47:14.312Z,52.97
2018-04-23T11:48:16.818Z,52.96
2018-04-23T11:49:19.326Z,52.95
2018-04-23T11:50:21.806Z,52.95
2018-04-23T11:51:24.314Z,52.94
2018-04-23T11:52:26.827Z,52.93
2018-04-23T11:53:29.373Z,52.93
2018-04-23T11:54:32.236Z,52.92
2018-04-23T11:55:34.741Z,52.91
2018-04-23T11:56:37.273Z,52.91
2018-04-23T11:57:39.774Z,52.92
2018-04-23T11:58:42.572Z,52.86
2018-04-23T11:59:45.137Z,52.90
2018-04-23T12:00:47.624Z,52.92
2018-04-23T12:01:50.133Z,52.94
2018-04-23T12:02:52.631Z,52.90
2018-04-23T12:03:55.138Z,52.89
2018-04-23T12:04:57.651Z,52.90
2018-04-23T12:06:00.161Z,52.90
2018-04-23T12:07:02.667Z,52.88
2018-04-23T12:08:05.166Z,52.88
2018-04-23T12:09:07.671Z,52.87
2018-04-23T12:10:10.161Z,52.86
2018-04-23T12:11:12.680Z,52.85
2018-04-23T12:12:15.159Z,52.85
2018-04-23T12:13:17.635Z,52.85
2018-04-23T12:14:20.125Z,52.85
2018-04-23T12:15:22.631Z,52.84
2018-04-23T12:16:25.129Z,52.84
2018-04-23T12:17:27.632Z,52.82
2018-04-23T12:18:30.135Z,52.81
2018-04-23T12:19:32.629Z,52.79
2018-04-23T12:20:35.108Z,52.79
2018-04-23T12:21:37.642Z,52.78
2018-04-23T12:22:40.145Z,52.77
2018-04-23T12:23:42.662Z,52.77
2018-04-23T12:24:45.141Z,52.77
2018-04-23T12:25:47.616Z,52.76
2018-04-23T12:26:50.149Z,52.76
2018-04-23T12:27:52.641Z,52.77
2018-04-23T12:28:55.140Z,52.73
2018-04-23T12:29:57.629Z,52.76
2018-04-23T12:31:00.131Z,52.75
2018-04-23T12:32:02.638Z,52.77
2018-04-23T12:33:05.125Z,52.75
2018-04-23T12:34:07.644Z,52.75
2018-04-23T12:35:10.128Z,52.75
2018-04-23T12:36:12.631Z,52.74
2018-04-23T12:37:15.141Z,52.74
2018-04-23T12:38:17.647Z,52.71
2018-04-23T12:39:20.142Z,52.75
2018-04-23T12:40:22.638Z,52.74
2018-04-23T12:41:25.152Z,52.76
2018-04-23T12:42:27.662Z,52.75
2018-04-23T12:43:30.172Z,52.76
2018-04-23T12:44:32.662Z,52.76
2018-04-23T12:45:35.172Z,52.76
2018-04-23T12:46:37.675Z,52.76
2018-04-23T12:47:40.170Z,52.76
2018-04-23T12:48:42.665Z,52.76
2018-04-23T12:49:45.152Z,52.76
2018-04-23T12:50:47.713Z,52.77
2018-04-23T12:51:50.220Z,52.77
2018-04-23T12:52:52.729Z,52.77
2018-04-23T12:53:55.206Z,52.75
2018-04-23T12:54:57.867Z,52.73
2018-04-23T12:56:00.430Z,52.72
2018-04-23T12:57:02.946Z,52.72
2018-04-23T12:58:05.454Z,52.72
2018-04-23T12:59:07.941Z,52.71
2018-04-23T13:00:10.451Z,52.70
2018-04-23T13:01:12.946Z,52.71
2018-04-23T13:02:15.599Z,52.70
2018-04-23T13:03:18.111Z,52.70
2018-04-23T13:04:20.625Z,52.71
2018-04-23T13:05:23.090Z,52.71
2018-04-23T13:06:25.567Z,52.70
2018-04-23T13:07:28.039Z,52.71
2018-04-23T13:08:30.532Z,52.72
2018-04-23T13:09:33.029Z,52.71
2018-04-23T13:10:35.532Z,52.72
2018-04-23T13:11:38.025Z,52.71
2018-04-23T13:12:40.725Z,52.70
2018-04-23T13:13:43.263Z,52.69
2018-04-23T13:14:45.764Z,52.69
2018-04-23T13:15:48.247Z,52.68
2018-04-23T13:16:50.757Z,52.68
2018-04-23T13:17:53.318Z,52.67
2018-04-23T13:18:55.839Z,52.66
2018-04-23T13:19:58.341Z,52.64
2018-04-23T13:21:00.951Z,52.62
2018-04-23T13:22:03.471Z,52.61
2018-04-23T13:23:05.984Z,52.61
2018-04-23T13:24:08.482Z,52.61
2018-04-23T13:25:10.989Z,52.61
2018-04-23T13:26:13.480Z,52.60
2018-04-23T13:27:15.974Z,52.59